createdAt,value
2017-11-03T00:00:15.572Z,49.90
2017-11-03T00:01:15.569Z,49.10
2017-11-03T00:02:15.571Z,46.10
2017-11-03T00:03:15.554Z,49.70
2017-11-03T00:04:15.548Z,51.10
2017-11-03T00:05:15.541Z,46.30
2017-11-03T00:06:15.541Z,45.60
2017-11-03T00:07:15.534Z,45.90
2017-11-03T00:08:15.523Z,41.20
2017-11-03T00:09:15.523Z,44.30
2017-11-03T00:10:15.511Z,41.80
2017-11-03T00:11:15.505Z,43.30
2017-11-03T00:12:15.501Z,46.70
2017-11-03T00:13:15.492Z,45.30
2017-11-03T00:14:15.490Z,45.80
2017-11-03T00:15:15.488Z,42.80
2017-11-03T00:16:15.476Z,38.90
2017-11-03T00:17:15.472Z,37.70
2017-11-03T00:18:15.465Z,40.50
2017-11-03T00:19:15.459Z,37.60
2017-11-03T00:20:15.453Z,38.50
2017-11-03T00:21:15.451Z,40.20
2017-11-03T00:22:15.438Z,37.70
2017-11-03T00:23:15.433Z,36.60
2017-11-03T00:24:15.459Z,37.30
2017-11-03T00:25:15.420Z,33.80
2017-11-03T00:26:15.419Z,33.60
2017-11-03T00:27:15.409Z,35.40
2017-11-03T00:28:15.423Z,35.00
2017-11-03T00:29:15.398Z,38.30
2017-11-03T00:30:15.392Z,37.90
2017-11-03T00:31:15.387Z,34.70
2017-11-03T00:32:15.379Z,32.80
2017-11-03T00:33:15.372Z,33.00
2017-11-03T00:34:15.377Z,33.50
2017-11-03T00:35:15.380Z,36.30
2017-11-03T00:36:15.358Z,33.60
2017-11-03T00:37:15.350Z,37.00
2017-11-03T00:38:15.343Z,37.50
2017-11-03T00:39:15.335Z,38.10
2017-11-03T00:40:15.330Z,34.40
2017-11-03T00:41:15.329Z,35.40
2017-11-03T00:42:16.308Z,35.80
2017-11-03T00:43:15.316Z,38.30
2017-11-03T00:44:15.318Z,35.30
2017-11-03T00:45:15.302Z,34.00
2017-11-03T00:46:15.296Z,31.90
2017-11-03T00:47:15.288Z,34.60
2017-11-03T00:48:15.280Z,36.90
2017-11-03T00:49:15.297Z,35.10
2017-11-03T00:50:15.278Z,35.90
2017-11-03T00:51:15.269Z,35.40
2017-11-03T00:52:15.257Z,35.20
2017-11-03T00:53:15.250Z,36.00
2017-11-03T00:54:15.245Z,36.10
2017-11-03T00:55:15.239Z,34.70
2017-11-03T00:56:15.234Z,35.50
2017-11-03T00:57:15.226Z,34.50
2017-11-03T00:58:15.227Z,33.40
2017-11-03T00:59:15.209Z,33.80
2017-11-03T01:00:15.208Z,32.50
2017-11-03T01:01:15.201Z,32.30
2017-11-03T01:02:15.197Z,35.60
2017-11-03T01:03:15.189Z,32.20
2017-11-03T01:04:15.182Z,32.30
2017-11-03T01:05:15.175Z,32.90
2017-11-03T01:06:15.171Z,34.30
2017-11-03T01:07:15.164Z,35.10
2017-11-03T01:08:15.156Z,35.10
2017-11-03T01:09:15.148Z,33.70
2017-11-03T01:10:15.143Z,34.30
2017-11-03T01:11:15.138Z,36.80
2017-11-03T01:12:15.131Z,33.20
2017-11-03T01:13:15.126Z,36.30
2017-11-03T01:14:15.120Z,35.40
2017-11-03T01:15:15.111Z,31.70
2017-11-03T01:16:15.123Z,37.60
2017-11-03T01:17:15.102Z,35.30
2017-11-03T01:18:15.092Z,36.40
2017-11-03T01:19:15.085Z,30.30
2017-11-03T01:20:15.084Z,34.00
2017-11-03T01:21:15.074Z,34.60
2017-11-03T01:22:15.070Z,34.90
2017-11-03T01:23:15.060Z,33.30
2017-11-03T01:24:15.062Z,32.10
2017-11-03T01:25:15.049Z,34.20
2017-11-03T01:26:15.048Z,33.00
2017-11-03T01:27:15.036Z,33.20
2017-11-03T01:28:15.027Z,31.50
2017-11-03T01:29:15.021Z,30.70
2017-11-03T01:30:15.020Z,36.60
2017-11-03T01:31:15.010Z,30.50
2017-11-03T01:32:15.002Z,32.80
2017-11-03T01:33:14.996Z,34.00
2017-11-03T01:34:14.989Z,32.40
2017-11-03T01:35:14.986Z,29.30
2017-11-03T01:36:14.982Z,30.90
2017-11-03T01:37:14.974Z,30.50
2017-11-03T01:38:14.964Z,30.70
2017-11-03T01:39:14.960Z,30.10
2017-11-03T01:40:14.963Z,30.30
2017-11-03T01:41:14.946Z,31.10
2017-11-03T01:42:14.937Z,30.30
2017-11-03T01:43:14.930Z,29.80
2017-11-03T01:44:14.924Z,33.00
2017-11-03T01:45:14.920Z,33.90
2017-11-03T01:46:14.917Z,30.00
2017-11-03T01:47:14.907Z,34.60
2017-11-03T01:48:14.900Z,33.00
2017-11-03T01:49:14.894Z,33.00
2017-11-03T01:50:14.888Z,31.10
2017-11-03T01:51:14.880Z,32.00
2017-11-03T01:52:14.872Z,31.50
2017-11-03T01:53:14.864Z,30.50
2017-11-03T01:54:14.859Z,30.70
2017-11-03T01:55:14.856Z,31.00
2017-11-03T01:56:14.845Z,30.50
2017-11-03T01:57:14.842Z,32.40
2017-11-03T01:58:14.833Z,31.70
2017-11-03T01:59:14.829Z,33.10
2017-11-03T02:00:14.821Z,32.00
2017-11-03T02:01:14.816Z,31.70
2017-11-03T02:02:14.807Z,32.70
2017-11-03T02:03:14.799Z,30.20
2017-11-03T02:04:14.798Z,30.70
2017-11-03T02:05:14.790Z,28.50
2017-11-03T02:06:14.782Z,32.40
2017-11-03T02:07:14.773Z,31.00
2017-11-03T02:08:14.765Z,28.90
2017-11-03T02:09:14.762Z,26.20
2017-11-03T02:10:14.757Z,25.80
2017-11-03T02:11:14.750Z,27.30
2017-11-03T02:12:14.739Z,27.80
2017-11-03T02:13:14.744Z,28.20
2017-11-03T02:14:14.733Z,26.90
2017-11-03T02:15:14.722Z,27.10
2017-11-03T02:16:14.713Z,27.00
2017-11-03T02:17:14.706Z,28.70
2017-11-03T02:18:14.705Z,27.90
2017-11-03T02:19:14.693Z,25.80
2017-11-03T02:20:14.689Z,28.00
2017-11-03T02:21:14.682Z,24.90
2017-11-03T02:22:14.677Z,24.70
2017-11-03T02:23:14.669Z,26.30
2017-11-03T02:24:14.663Z,26.50
2017-11-03T02:25:14.657Z,25.20
2017-11-03T02:26:14.651Z,24.70
2017-11-03T02:27:14.642Z,27.10
2017-11-03T02:28:14.638Z,25.40
2017-11-03T02:29:14.629Z,24.40
2017-11-03T02:30:14.622Z,24.90
2017-11-03T02:31:14.615Z,27.10
2017-11-03T02:32:14.605Z,24.00
2017-11-03T02:33:14.602Z,24.20
2017-11-03T02:34:14.594Z,24.40
2017-11-03T02:35:14.590Z,26.60
2017-11-03T02:36:14.583Z,26.50
2017-11-03T02:37:14.571Z,22.60
2017-11-03T02:38:14.567Z,25.00
2017-11-03T02:39:14.563Z,24.90
2017-11-03T02:40:14.556Z,26.90
2017-11-03T02:41:14.544Z,23.60
2017-11-03T02:42:14.534Z,23.70
2017-11-03T02:43:14.532Z,26.40
2017-11-03T02:44:14.527Z,24.10
2017-11-03T02:45:14.519Z,24.30
2017-11-03T02:46:14.506Z,26.20
2017-11-03T02:47:14.497Z,27.40
2017-11-03T02:48:14.505Z,25.40
2017-11-03T02:49:14.490Z,25.90
2017-11-03T02:50:14.486Z,24.20
2017-11-03T02:51:14.476Z,24.30
2017-11-03T02:52:14.479Z,23.60
2017-11-03T02:53:14.462Z,25.90
2017-11-03T02:54:14.461Z,23.80
2017-11-03T02:55:14.448Z,23.70
2017-11-03T02:56:14.445Z,22.60
2017-11-03T02:57:14.439Z,24.80
2017-11-03T02:58:14.435Z,24.10
2017-11-03T02:59:14.421Z,23.70
2017-11-03T03:00:14.417Z,23.70
2017-11-03T03:01:14.410Z,25.40
2017-11-03T03:02:14.403Z,24.00
2017-11-03T03:03:14.397Z,25.50
2017-11-03T03:04:14.387Z,25.70
2017-11-03T03:05:14.384Z,27.70
2017-11-03T03:06:14.379Z,25.50
2017-11-03T03:07:14.366Z,29.50
2017-11-03T03:08:14.364Z,26.60
2017-11-03T03:09:14.353Z,28.10
2017-11-03T03:10:14.349Z,29.60
2017-11-03T03:11:14.341Z,26.50
2017-11-03T03:12:14.336Z,30.10
2017-11-03T03:13:14.328Z,27.90
2017-11-03T03:14:14.322Z,28.70
2017-11-03T03:15:14.314Z,27.90
2017-11-03T03:16:14.306Z,27.10
2017-11-03T03:17:14.295Z,27.00
2017-11-03T03:18:14.291Z,27.20
2017-11-03T03:19:14.291Z,26.80
2017-11-03T03:20:14.277Z,26.00
2017-11-03T03:21:14.273Z,25.00
2017-11-03T03:22:14.261Z,23.50
2017-11-03T03:23:14.256Z,23.20
2017-11-03T03:24:14.249Z,23.90
2017-11-03T03:25:14.243Z,22.90
2017-11-03T03:26:14.238Z,23.80
2017-11-03T03:27:14.219Z,26.80
2017-11-03T03:28:14.218Z,22.80
2017-11-03T03:29:14.215Z,23.90
2017-11-03T03:30:14.208Z,22.90
2017-11-03T03:31:14.201Z,21.90
2017-11-03T03:32:14.189Z,23.30
2017-11-03T03:33:14.186Z,22.90
2017-11-03T03:34:14.180Z,24.40
2017-11-03T03:35:14.171Z,22.50
2017-11-03T03:36:14.179Z,22.30
2017-11-03T03:37:14.157Z,21.30
2017-11-03T03:38:14.151Z,23.10
2017-11-03T03:39:14.142Z,21.70
2017-11-03T03:40:14.135Z,23.30
2017-11-03T03:41:14.130Z,23.00
2017-11-03T03:42:14.121Z,21.90
2017-11-03T03:43:14.113Z,22.10
2017-11-03T03:44:14.108Z,22.90
2017-11-03T03:45:14.103Z,22.20
2017-11-03T03:46:14.091Z,22.20
2017-11-03T03:47:14.082Z,20.90
2017-11-03T03:48:14.082Z,20.80
2017-11-03T03:49:14.070Z,21.50
2017-11-03T03:50:14.060Z,20.20
2017-11-03T03:51:14.046Z,21.70
2017-11-03T03:52:14.047Z,20.50
2017-11-03T03:53:14.041Z,21.50
2017-11-03T03:54:14.032Z,21.70
2017-11-03T03:55:14.026Z,21.70
2017-11-03T03:56:14.015Z,20.60
2017-11-03T03:57:14.010Z,21.40
2017-11-03T03:58:14.002Z,22.10
2017-11-03T03:59:13.995Z,24.00
2017-11-03T04:00:13.990Z,22.30
2017-11-03T04:01:13.979Z,23.10
2017-11-03T04:02:13.974Z,21.90
2017-11-03T04:03:13.964Z,23.00
2017-11-03T04:04:13.960Z,22.60
2017-11-03T04:05:13.953Z,22.00
2017-11-03T04:06:13.946Z,22.70
2017-11-03T04:07:13.938Z,22.00
2017-11-03T04:08:13.931Z,21.10
2017-11-03T04:09:13.918Z,20.90
2017-11-03T04:10:13.915Z,19.30
2017-11-03T04:11:13.903Z,21.70
2017-11-03T04:12:13.898Z,19.60
2017-11-03T04:13:13.892Z,20.90
2017-11-03T04:14:13.886Z,18.20
2017-11-03T04:15:13.879Z,18.40
2017-11-03T04:16:13.872Z,18.70
2017-11-03T04:17:13.880Z,18.80
2017-11-03T04:18:13.857Z,17.40
2017-11-03T04:19:13.854Z,17.70
2017-11-03T04:20:13.841Z,17.40
2017-11-03T04:21:13.834Z,17.80
2017-11-03T04:22:13.827Z,17.80
2017-11-03T04:23:13.816Z,17.90
2017-11-03T04:24:13.833Z,18.20
2017-11-03T04:25:13.807Z,18.70
2017-11-03T04:26:13.792Z,18.80
2017-11-03T04:27:13.792Z,18.30
2017-11-03T04:28:13.777Z,19.10
2017-11-03T04:29:13.774Z,20.10
2017-11-03T04:30:13.768Z,18.80
2017-11-03T04:31:13.755Z,18.70
2017-11-03T04:32:13.752Z,18.30
2017-11-03T04:33:13.747Z,18.60
2017-11-03T04:34:13.736Z,18.70
2017-11-03T04:35:13.730Z,18.70
2017-11-03T04:36:13.720Z,19.10
2017-11-03T04:37:13.715Z,18.50
2017-11-03T04:38:13.705Z,18.80
2017-11-03T04:39:13.696Z,19.00
2017-11-03T04:40:13.689Z,20.30
2017-11-03T04:41:13.679Z,21.00
2017-11-03T04:42:13.676Z,19.70
2017-11-03T04:43:13.666Z,19.60
2017-11-03T04:44:13.663Z,20.60
2017-11-03T04:45:13.657Z,23.60
2017-11-03T04:46:13.657Z,30.50
2017-11-03T04:47:13.636Z,33.50
2017-11-03T04:48:13.628Z,29.80
2017-11-03T04:49:13.622Z,32.10
2017-11-03T04:50:13.611Z,32.60
2017-11-03T04:51:13.611Z,33.80
2017-11-03T04:52:13.598Z,30.40
2017-11-03T04:53:13.592Z,28.90
2017-11-03T04:54:13.583Z,29.30
2017-11-03T04:55:13.576Z,29.70
2017-11-03T04:56:13.567Z,28.10
2017-11-03T04:57:13.579Z,30.10
2017-11-03T04:58:13.555Z,30.40
2017-11-03T04:59:13.545Z,30.00
2017-11-03T05:00:13.536Z,30.20
2017-11-03T05:01:13.533Z,29.90
2017-11-03T05:02:13.520Z,31.60
2017-11-03T05:03:13.514Z,30.30
2017-11-03T05:04:13.504Z,32.80
2017-11-03T05:05:13.495Z,30.70
2017-11-03T05:06:13.497Z,32.70
2017-11-03T05:07:13.495Z,33.00
2017-11-03T05:08:13.477Z,34.20
2017-11-03T05:09:13.470Z,33.40
2017-11-03T05:10:13.465Z,31.80
2017-11-03T05:11:13.454Z,34.00
2017-11-03T05:12:13.443Z,35.00
2017-11-03T05:13:13.442Z,34.50
2017-11-03T05:14:13.432Z,38.30
2017-11-03T05:15:13.423Z,36.90
2017-11-03T05:16:13.416Z,38.50
2017-11-03T05:17:13.405Z,36.10
2017-11-03T05:18:13.401Z,35.80
2017-11-03T05:19:13.393Z,35.10
2017-11-03T05:20:13.394Z,33.70
2017-11-03T05:21:13.380Z,33.40
2017-11-03T05:22:13.368Z,31.90
2017-11-03T05:23:13.359Z,37.80
2017-11-03T05:24:13.351Z,33.50
2017-11-03T05:25:13.346Z,31.50
2017-11-03T05:26:13.339Z,29.20
2017-11-03T05:27:13.331Z,29.40
2017-11-03T05:28:13.322Z,33.30
2017-11-03T05:29:13.316Z,32.70
2017-11-03T05:30:13.308Z,35.00
2017-11-03T05:31:13.299Z,33.20
2017-11-03T05:32:13.288Z,33.70
2017-11-03T05:33:13.284Z,33.90
2017-11-03T05:34:13.276Z,33.70
2017-11-03T05:35:13.266Z,35.00
2017-11-03T05:36:13.261Z,29.80
2017-11-03T05:37:13.250Z,32.40
2017-11-03T05:38:13.246Z,30.50
2017-11-03T05:39:13.236Z,28.00
2017-11-03T05:40:13.228Z,28.20
2017-11-03T05:41:13.222Z,30.80
2017-11-03T05:42:13.211Z,31.90
2017-11-03T05:43:13.205Z,37.10
2017-11-03T05:44:13.198Z,35.00
2017-11-03T05:45:13.188Z,37.60
2017-11-03T05:46:13.184Z,31.60
2017-11-03T05:47:13.177Z,34.10
2017-11-03T05:48:13.167Z,32.70
2017-11-03T05:49:13.161Z,41.40
2017-11-03T05:50:13.152Z,38.40
2017-11-03T05:51:13.146Z,35.50
2017-11-03T05:52:13.133Z,35.00
2017-11-03T05:53:13.131Z,36.70
2017-11-03T05:54:13.125Z,29.90
2017-11-03T05:55:13.112Z,33.70
2017-11-03T05:56:13.106Z,34.90
2017-11-03T05:57:13.101Z,33.70
2017-11-03T05:58:13.093Z,32.50
2017-11-03T05:59:13.084Z,37.10
2017-11-03T06:00:13.076Z,30.50
2017-11-03T06:01:13.066Z,31.10
2017-11-03T06:02:13.056Z,33.80
2017-11-03T06:03:13.049Z,38.30
2017-11-03T06:04:13.044Z,36.30
2017-11-03T06:05:13.034Z,30.80
2017-11-03T06:06:13.018Z,36.90
2017-11-03T06:07:13.019Z,35.80
2017-11-03T06:08:13.011Z,38.40
2017-11-03T06:09:13.002Z,35.30
2017-11-03T06:10:12.997Z,37.80
2017-11-03T06:11:12.987Z,34.00
2017-11-03T06:12:12.978Z,33.80
2017-11-03T06:13:12.976Z,32.00
2017-11-03T06:14:12.969Z,37.20
2017-11-03T06:15:12.957Z,38.20
2017-11-03T06:16:12.950Z,36.30
2017-11-03T06:17:12.941Z,36.60
2017-11-03T06:18:12.935Z,35.00
2017-11-03T06:19:12.945Z,37.60
2017-11-03T06:20:12.918Z,39.30
2017-11-03T06:21:12.922Z,40.40
2017-11-03T06:22:12.901Z,42.80
2017-11-03T06:23:12.892Z,41.60
2017-11-03T06:24:12.887Z,43.50
2017-11-03T06:25:12.879Z,46.20
2017-11-03T06:26:12.874Z,45.80
2017-11-03T06:27:12.863Z,44.10
2017-11-03T06:28:12.856Z,46.50
2017-11-03T06:29:12.849Z,45.40
2017-11-03T06:30:12.856Z,61.20
2017-11-03T06:31:12.828Z,50.50
2017-11-03T06:32:12.824Z,50.10
2017-11-03T06:33:12.817Z,65.30
2017-11-03T06:34:12.810Z,67.00
2017-11-03T06:35:12.807Z,78.40
2017-11-03T06:36:12.838Z,84.90
2017-11-03T06:37:12.786Z,78.60
2017-11-03T06:38:12.779Z,64.70
2017-11-03T06:39:12.776Z,36.60
2017-11-03T06:40:12.763Z,40.20
2017-11-03T06:41:12.752Z,38.90
2017-11-03T06:42:12.750Z,59.00
2017-11-03T06:43:12.737Z,80.60
2017-11-03T06:44:12.729Z,57.50
2017-11-03T06:45:12.723Z,51.30
2017-11-03T06:46:12.716Z,30.30
2017-11-03T06:47:12.709Z,28.40
2017-11-03T06:48:12.702Z,29.20
2017-11-03T06:49:12.692Z,28.70
2017-11-03T06:50:12.684Z,25.90
2017-11-03T06:51:12.679Z,33.70
2017-11-03T06:52:12.668Z,29.20
2017-11-03T06:53:12.658Z,29.80
2017-11-03T06:54:12.652Z,25.20
2017-11-03T06:55:12.646Z,34.50
2017-11-03T06:56:12.634Z,32.30
2017-11-03T06:57:12.629Z,24.00
2017-11-03T06:58:12.623Z,26.40
2017-11-03T06:59:12.617Z,93.70
2017-11-03T07:00:12.606Z,29.50
2017-11-03T07:01:12.598Z,36.20
2017-11-03T07:02:12.594Z,32.30
2017-11-03T07:03:12.591Z,45.80
2017-11-03T07:04:12.580Z,35.10
2017-11-03T07:05:12.569Z,29.20
2017-11-03T07:06:12.561Z,32.20
2017-11-03T07:07:12.543Z,42.00
2017-11-03T07:08:12.544Z,81.50
2017-11-03T07:09:12.541Z,55.10
2017-11-03T07:10:12.533Z,75.20
2017-11-03T07:11:12.522Z,83.80
2017-11-03T07:12:12.512Z,115.10
2017-11-03T07:13:12.506Z,49.90
2017-11-03T07:14:12.495Z,49.90
2017-11-03T07:15:12.489Z,36.50
2017-11-03T07:16:12.493Z,34.40
2017-11-03T07:17:12.474Z,65.20
2017-11-03T07:18:12.465Z,64.00
2017-11-03T07:19:12.464Z,45.40
2017-11-03T07:20:12.450Z,64.20
2017-11-03T07:21:12.444Z,72.70
2017-11-03T07:22:12.438Z,60.10
2017-11-03T07:23:12.427Z,38.40
2017-11-03T07:24:12.422Z,37.50
2017-11-03T07:25:12.413Z,44.50
2017-11-03T07:26:12.401Z,60.80
2017-11-03T07:27:12.394Z,48.80
2017-11-03T07:28:12.386Z,45.50
2017-11-03T07:29:12.382Z,114.60
2017-11-03T07:30:12.374Z,58.00
2017-11-03T07:31:12.364Z,34.70
2017-11-03T07:32:12.362Z,34.20
2017-11-03T07:33:12.349Z,58.80
2017-11-03T07:34:12.338Z,51.10
2017-11-03T07:35:12.336Z,81.30
2017-11-03T07:36:12.328Z,50.90
2017-11-03T07:37:12.317Z,51.60
2017-11-03T07:38:12.311Z,44.90
2017-11-03T07:39:12.303Z,68.30
2017-11-03T07:40:12.295Z,113.80
2017-11-03T07:41:12.289Z,80.20
2017-11-03T07:42:12.283Z,56.60
2017-11-03T07:43:12.277Z,36.20
2017-11-03T07:44:12.255Z,38.30
2017-11-03T07:45:12.260Z,38.60
2017-11-03T07:46:12.247Z,52.80
2017-11-03T07:47:12.241Z,42.20
2017-11-03T07:48:12.237Z,35.30
2017-11-03T07:49:12.226Z,56.20
2017-11-03T07:50:12.221Z,43.70
2017-11-03T07:51:12.211Z,40.70
2017-11-03T07:52:12.207Z,54.60
2017-11-03T07:53:12.201Z,63.80
2017-11-03T07:54:12.193Z,67.50
2017-11-03T07:55:12.179Z,78.20
2017-11-03T07:56:12.170Z,51.20
2017-11-03T07:57:12.171Z,63.40
2017-11-03T07:58:12.165Z,34.80
2017-11-03T07:59:12.154Z,28.70
2017-11-03T08:00:12.143Z,49.30
2017-11-03T08:01:12.133Z,87.00
2017-11-03T08:02:12.123Z,37.80
2017-11-03T08:03:12.129Z,36.50
2017-11-03T08:04:12.111Z,30.00
2017-11-03T08:05:12.103Z,37.60
2017-11-03T08:06:12.096Z,37.10
2017-11-03T08:07:12.088Z,31.20
2017-11-03T08:08:12.081Z,30.50
2017-11-03T08:09:12.071Z,37.00
2017-11-03T08:10:12.068Z,32.50
2017-11-03T08:11:12.059Z,40.90
2017-11-03T08:12:12.050Z,32.30
2017-11-03T08:13:12.042Z,36.00
2017-11-03T08:14:12.037Z,24.60
2017-11-03T08:15:12.025Z,25.40
2017-11-03T08:16:12.023Z,41.20
2017-11-03T08:17:12.012Z,38.20
2017-11-03T08:18:12.006Z,29.20
2017-11-03T08:19:11.995Z,53.80
2017-11-03T08:20:11.990Z,35.60
2017-11-03T08:21:11.981Z,36.90
2017-11-03T08:22:11.974Z,42.60
2017-11-03T08:23:11.967Z,33.50
2017-11-03T08:24:11.959Z,55.10
2017-11-03T08:25:11.955Z,56.90
2017-11-03T08:26:11.944Z,43.00
2017-11-03T08:27:11.963Z,53.40
2017-11-03T08:28:11.929Z,26.00
2017-11-03T08:29:11.923Z,46.70
2017-11-03T08:30:11.913Z,28.20
2017-11-03T08:31:11.911Z,31.00
2017-11-03T08:32:11.898Z,59.50
2017-11-03T08:33:11.894Z,51.90
2017-11-03T08:34:11.882Z,44.20
2017-11-03T08:35:11.876Z,37.60
2017-11-03T08:36:11.866Z,28.40
2017-11-03T08:37:11.862Z,29.30
2017-11-03T08:38:11.860Z,32.00
2017-11-03T08:39:11.853Z,50.80
2017-11-03T08:40:11.842Z,32.50
2017-11-03T08:41:11.830Z,35.30
2017-11-03T08:42:11.826Z,29.30
2017-11-03T08:43:11.815Z,61.00
2017-11-03T08:44:11.809Z,37.00
2017-11-03T08:45:11.802Z,66.10
2017-11-03T08:46:11.803Z,89.80
2017-11-03T08:47:11.788Z,79.80
2017-11-03T08:48:11.778Z,73.70
2017-11-03T08:49:11.777Z,59.70
2017-11-03T08:50:11.764Z,41.10
2017-11-03T08:51:11.756Z,61.30
2017-11-03T08:52:11.751Z,84.70
2017-11-03T08:53:11.744Z,64.90
2017-11-03T08:54:11.727Z,55.30
2017-11-03T08:55:11.728Z,35.10
2017-11-03T08:56:11.717Z,40.90
2017-11-03T08:57:11.715Z,34.60
2017-11-03T08:58:11.706Z,61.80
2017-11-03T08:59:11.698Z,81.20
2017-11-03T09:00:11.690Z,47.30
2017-11-03T09:01:11.687Z,37.40
2017-11-03T09:02:11.677Z,61.00
2017-11-03T09:03:11.668Z,37.30
2017-11-03T09:04:11.659Z,66.40
2017-11-03T09:05:11.676Z,76.60
2017-11-03T09:06:11.650Z,51.10
2017-11-03T09:07:11.642Z,32.90
2017-11-03T09:08:11.631Z,58.50
2017-11-03T09:09:11.624Z,82.90
2017-11-03T09:10:11.620Z,45.90
2017-11-03T09:11:11.613Z,50.50
2017-11-03T09:12:11.608Z,49.90
2017-11-03T09:13:11.597Z,47.20
2017-11-03T09:14:11.589Z,61.20
2017-11-03T09:15:11.592Z,47.20
2017-11-03T09:16:11.581Z,50.70
2017-11-03T09:17:11.577Z,47.00
2017-11-03T09:18:11.571Z,58.40
2017-11-03T09:19:11.557Z,40.70
2017-11-03T09:20:11.549Z,40.90
2017-11-03T09:21:11.531Z,35.20
2017-11-03T09:22:11.525Z,33.90
2017-11-03T09:23:11.518Z,57.50
2017-11-03T09:24:11.519Z,42.60
2017-11-03T09:25:11.515Z,39.60
2017-11-03T09:26:11.516Z,40.30
2017-11-03T09:27:11.497Z,37.80
2017-11-03T09:28:11.502Z,43.60
2017-11-03T09:29:11.494Z,41.70
2017-11-03T09:30:11.487Z,32.00
2017-11-03T09:31:11.469Z,33.30
2017-11-03T09:32:11.464Z,34.30
2017-11-03T09:33:11.450Z,32.40
2017-11-03T09:34:11.445Z,32.60
2017-11-03T09:35:11.447Z,57.50
2017-11-03T09:36:11.437Z,57.00
2017-11-03T09:37:11.427Z,37.80
2017-11-03T09:38:11.425Z,32.40
2017-11-03T09:39:11.417Z,35.30
2017-11-03T09:40:11.410Z,34.40
2017-11-03T09:41:11.398Z,32.50
2017-11-03T09:42:11.397Z,33.30
2017-11-03T09:43:11.386Z,31.70
2017-11-03T09:44:11.376Z,31.80
2017-11-03T09:45:11.370Z,44.30
2017-11-03T09:46:11.374Z,36.30
2017-11-03T09:47:11.361Z,52.40
2017-11-03T09:48:11.356Z,30.70
2017-11-03T09:49:11.352Z,31.10
2017-11-03T09:50:12.393Z,34.30
2017-11-03T09:51:11.333Z,31.60
2017-11-03T09:52:11.325Z,39.80
2017-11-03T09:53:11.332Z,34.50
2017-11-03T09:54:11.312Z,29.80
2017-11-03T09:55:11.307Z,38.00
2017-11-03T09:56:11.303Z,37.20
2017-11-03T09:57:11.298Z,33.90
2017-11-03T09:58:11.288Z,34.20
2017-11-03T09:59:11.282Z,42.60
2017-11-03T10:00:11.276Z,36.00
2017-11-03T10:01:11.268Z,32.10
2017-11-03T10:02:11.264Z,40.20
2017-11-03T10:03:11.264Z,32.80
2017-11-03T10:04:11.248Z,31.60
2017-11-03T10:05:11.244Z,41.90
2017-11-03T10:06:11.236Z,42.90
2017-11-03T10:07:11.229Z,33.70
2017-11-03T10:08:11.221Z,34.80
2017-11-03T10:09:11.213Z,36.90
2017-11-03T10:10:11.210Z,34.70
2017-11-03T10:11:11.210Z,38.90
2017-11-03T10:12:11.194Z,34.70
2017-11-03T10:13:11.197Z,35.10
2017-11-03T10:14:11.187Z,34.10
2017-11-03T10:15:11.180Z,38.10
2017-11-03T10:16:11.171Z,38.90
2017-11-03T10:17:11.164Z,40.30
2017-11-03T10:18:11.157Z,34.10
2017-11-03T10:19:11.151Z,40.40
2017-11-03T10:20:11.147Z,37.00
2017-11-03T10:21:11.143Z,38.00
2017-11-03T10:22:11.134Z,37.30
2017-11-03T10:23:11.125Z,37.30
2017-11-03T10:24:11.122Z,39.10
2017-11-03T10:25:11.114Z,41.90
2017-11-03T10:26:11.110Z,35.60
2017-11-03T10:27:11.108Z,44.30
2017-11-03T10:28:11.100Z,39.50
2017-11-03T10:29:11.091Z,37.90
2017-11-03T10:30:11.085Z,42.00
2017-11-03T10:31:11.076Z,39.20
2017-11-03T10:32:11.078Z,39.90
2017-11-03T10:33:11.066Z,39.00
2017-11-03T10:34:11.059Z,39.00
2017-11-03T10:35:11.054Z,43.00
2017-11-03T10:36:11.051Z,38.40
2017-11-03T10:37:11.039Z,40.50
2017-11-03T10:38:11.037Z,39.20
2017-11-03T10:39:11.026Z,36.40
2017-11-03T10:40:11.022Z,37.20
2017-11-03T10:41:11.017Z,39.90
2017-11-03T10:42:11.010Z,41.70
2017-11-03T10:43:11.001Z,43.70
2017-11-03T10:44:10.999Z,38.50
2017-11-03T10:45:10.992Z,40.80
2017-11-03T10:46:10.991Z,44.80
2017-11-03T10:47:10.980Z,39.00
2017-11-03T10:48:10.972Z,40.70
2017-11-03T10:49:10.966Z,42.00
2017-11-03T10:50:10.962Z,39.70
2017-11-03T10:51:10.955Z,41.30
2017-11-03T10:52:10.950Z,39.90
2017-11-03T10:53:10.944Z,40.50
2017-11-03T10:54:10.939Z,41.10
2017-11-03T10:55:10.933Z,40.40
2017-11-03T10:56:10.927Z,39.60
2017-11-03T10:57:10.921Z,42.10
2017-11-03T10:58:10.919Z,42.00
2017-11-03T10:59:10.907Z,43.30
2017-11-03T11:00:10.903Z,45.30
2017-11-03T11:01:10.897Z,43.50
2017-11-03T11:02:10.894Z,47.10
2017-11-03T11:03:10.885Z,43.90
2017-11-03T11:04:10.881Z,46.30
2017-11-03T11:05:10.875Z,44.60
2017-11-03T11:06:10.869Z,48.70
2017-11-03T11:07:10.864Z,53.30
2017-11-03T11:08:10.857Z,48.30
2017-11-03T11:09:10.852Z,47.70
2017-11-03T11:10:10.858Z,46.20
2017-11-03T11:11:10.841Z,50.10
2017-11-03T11:12:10.841Z,52.30
2017-11-03T11:13:10.829Z,54.90
2017-11-03T11:14:10.826Z,53.00
2017-11-03T11:15:10.818Z,54.10
2017-11-03T11:16:10.812Z,54.40
2017-11-03T11:17:10.807Z,58.90
2017-11-03T11:18:10.804Z,57.60
2017-11-03T11:19:10.820Z,56.70
2017-11-03T11:20:10.791Z,59.00
2017-11-03T11:21:10.788Z,53.00
2017-11-03T11:22:10.779Z,57.60
2017-11-03T11:23:10.773Z,53.20
2017-11-03T11:24:10.769Z,53.70
2017-11-03T11:25:10.761Z,53.50
2017-11-03T11:26:10.755Z,55.80
2017-11-03T11:27:10.752Z,58.50
2017-11-03T11:28:10.744Z,57.60
2017-11-03T11:29:10.744Z,58.70
2017-11-03T11:30:10.733Z,55.60
2017-11-03T11:31:10.736Z,56.70
2017-11-03T11:32:10.731Z,54.70
2017-11-03T11:33:10.716Z,51.30
2017-11-03T11:34:10.713Z,54.00
2017-11-03T11:35:10.707Z,54.50
2017-11-03T11:36:10.721Z,58.00
2017-11-03T11:37:10.706Z,57.50
2017-11-03T11:38:10.693Z,57.40
2017-11-03T11:39:10.686Z,55.30
2017-11-03T11:40:10.680Z,54.10
2017-11-03T11:41:10.681Z,55.70
2017-11-03T11:42:10.669Z,55.10
2017-11-03T11:43:10.662Z,56.80
2017-11-03T11:44:10.668Z,53.90
2017-11-03T11:45:10.658Z,54.70
2017-11-03T11:46:10.648Z,56.10
2017-11-03T11:47:10.643Z,52.20
2017-11-03T11:48:10.635Z,51.90
2017-11-03T11:49:10.632Z,53.40
2017-11-03T11:50:10.627Z,54.40
2017-11-03T11:51:10.622Z,53.20
2017-11-03T11:52:10.640Z,53.20
2017-11-03T11:53:10.610Z,51.40
2017-11-03T11:54:10.604Z,53.60
2017-11-03T11:55:10.599Z,55.30
2017-11-03T11:56:10.595Z,53.90
2017-11-03T11:57:10.591Z,53.70
2017-11-03T11:58:10.582Z,52.70
2017-11-03T11:59:10.578Z,55.60
2017-11-03T12:00:10.573Z,51.50
2017-11-03T12:01:10.568Z,50.10
2017-11-03T12:02:10.564Z,51.10
2017-11-03T12:03:10.555Z,53.60
2017-11-03T12:04:10.554Z,53.70
2017-11-03T12:05:10.551Z,56.70
2017-11-03T12:06:10.546Z,65.20
2017-11-03T12:07:10.536Z,63.80
2017-11-03T12:08:10.530Z,61.10
2017-11-03T12:09:10.528Z,60.10
2017-11-03T12:10:10.522Z,59.70
2017-11-03T12:11:10.516Z,54.00
2017-11-03T12:12:10.519Z,54.50
2017-11-03T12:13:10.504Z,55.20
2017-11-03T12:14:10.504Z,52.80
2017-11-03T12:15:10.496Z,50.70
2017-11-03T12:16:10.494Z,52.50
2017-11-03T12:17:10.486Z,55.90
2017-11-03T12:18:10.482Z,51.30
2017-11-03T12:19:10.480Z,55.20
2017-11-03T12:20:10.471Z,53.30
2017-11-03T12:21:10.472Z,52.10
2017-11-03T12:22:10.464Z,51.90
2017-11-03T12:23:10.456Z,54.60
2017-11-03T12:24:10.457Z,51.60
2017-11-03T12:25:10.448Z,52.30
2017-11-03T12:26:10.444Z,54.10
2017-11-03T12:27:10.437Z,51.30
2017-11-03T12:28:10.431Z,50.30
2017-11-03T12:29:10.429Z,46.70
2017-11-03T12:30:10.426Z,50.80
2017-11-03T12:31:10.417Z,50.60
2017-11-03T12:32:10.418Z,51.00
2017-11-03T12:33:10.411Z,47.30
2017-11-03T12:34:10.405Z,48.30
2017-11-03T12:35:10.397Z,51.40
2017-11-03T12:36:10.396Z,50.60
2017-11-03T12:37:10.390Z,50.10
2017-11-03T12:38:10.388Z,52.30
2017-11-03T12:39:10.382Z,50.60
2017-11-03T12:40:10.376Z,49.70
2017-11-03T12:41:10.373Z,49.80
2017-11-03T12:42:10.375Z,46.00
2017-11-03T12:43:10.361Z,48.40
2017-11-03T12:44:10.359Z,49.10
2017-11-03T12:45:10.349Z,43.90
2017-11-03T12:46:10.352Z,46.30
2017-11-03T12:47:10.343Z,48.10
2017-11-03T12:48:10.332Z,49.30
2017-11-03T12:49:10.341Z,49.90
2017-11-03T12:50:10.330Z,44.40
2017-11-03T12:51:10.330Z,45.20
2017-11-03T12:52:10.320Z,48.50